createdAt,value
2022-12-11T00:01:15.289Z,32.00
2022-12-11T00:03:43.668Z,35.30
2022-12-11T00:06:15.424Z,32.93
2022-12-11T00:08:44.317Z,35.67
2022-12-11T00:11:14.020Z,40.33
2022-12-11T00:13:42.867Z,35.27
2022-12-11T00:16:11.841Z,35.57
2022-12-11T00:18:40.489Z,36.50
2022-12-11T00:21:11.905Z,32.03
2022-12-11T00:23:42.223Z,29.23
2022-12-11T00:26:13.808Z,31.10
2022-12-11T00:28:42.656Z,34.23
2022-12-11T00:31:14.759Z,34.67
2022-12-11T00:33:43.464Z,34.70
2022-12-11T00:36:16.496Z,29.57
2022-12-11T00:38:46.086Z,29.30
2022-12-11T00:41:14.412Z,33.80
2022-12-11T00:43:42.832Z,32.60
2022-12-11T00:46:11.714Z,31.43
2022-12-11T00:48:40.311Z,31.53
2022-12-11T00:51:08.839Z,38.83
2022-12-11T00:53:37.213Z,34.60
2022-12-11T00:56:13.499Z,33.63
2022-12-11T00:58:41.805Z,34.83
2022-12-11T01:01:11.701Z,27.10
2022-12-11T01:03:40.179Z,33.93
2022-12-11T01:06:09.255Z,29.70
2022-12-11T01:08:38.888Z,26.90
2022-12-11T01:11:08.639Z,29.67
2022-12-11T01:13:38.890Z,30.73
2022-12-11T01:16:09.340Z,33.47
2022-12-11T01:18:37.971Z,32.90
2022-12-11T01:21:10.343Z,29.67
2022-12-11T01:23:39.854Z,33.23
2022-12-11T01:26:09.956Z,27.73
2022-12-11T01:28:39.896Z,30.70
2022-12-11T01:31:10.068Z,25.90
2022-12-11T01:33:38.433Z,30.40
2022-12-11T01:36:09.490Z,27.83
2022-12-11T01:38:37.960Z,27.23
2022-12-11T01:41:07.049Z,27.87
2022-12-11T01:43:35.437Z,27.10
2022-12-11T01:46:05.316Z,32.13
2022-12-11T01:48:36.779Z,26.97
2022-12-11T01:51:08.948Z,27.17
2022-12-11T01:53:41.561Z,27.20
2022-12-11T01:56:11.055Z,27.63
2022-12-11T01:58:43.802Z,28.40
2022-12-11T02:01:18.043Z,26.07
2022-12-11T02:03:46.289Z,29.87
2022-12-11T02:06:31.176Z,27.93
2022-12-11T02:08:59.528Z,28.70
2022-12-11T02:11:34.106Z,27.27
2022-12-11T02:14:07.983Z,31.90
2022-12-11T02:16:44.185Z,28.77
2022-12-11T02:19:23.024Z,30.33
2022-12-11T02:21:54.284Z,32.80
2022-12-11T02:24:51.932Z,31.23
2022-12-11T02:27:29.877Z,28.43
2022-12-11T02:30:03.618Z,33.83
2022-12-11T02:32:38.255Z,28.43
2022-12-11T02:35:11.898Z,28.73
2022-12-11T02:37:44.772Z,33.67
2022-12-11T02:40:16.100Z,31.67
2022-12-11T02:42:47.758Z,35.30
2022-12-11T02:45:19.374Z,32.23
2022-12-11T02:47:49.245Z,39.20
2022-12-11T02:50:21.130Z,34.67
2022-12-11T02:52:53.608Z,29.97
2022-12-11T02:55:22.208Z,38.40
2022-12-11T02:57:54.320Z,27.37
2022-12-11T03:00:24.017Z,34.07
2022-12-11T03:02:52.488Z,32.70
2022-12-11T03:05:20.917Z,36.87
2022-12-11T03:07:49.675Z,36.10
2022-12-11T03:10:20.194Z,31.97
2022-12-11T03:12:54.140Z,34.47
2022-12-11T03:15:31.487Z,33.23
2022-12-11T03:18:07.652Z,34.30
2022-12-11T03:20:40.045Z,37.47
2022-12-11T03:23:19.586Z,36.57
2022-12-11T03:25:54.624Z,37.43
2022-12-11T03:28:28.347Z,34.37
2022-12-11T03:30:59.432Z,38.50
2022-12-11T03:33:32.550Z,40.30
2022-12-11T03:36:07.288Z,35.77
2022-12-11T03:38:39.817Z,37.60
2022-12-11T03:41:09.691Z,39.70
2022-12-11T03:43:40.014Z,32.70
2022-12-11T03:46:11.192Z,38.73
2022-12-11T03:48:43.007Z,38.97
2022-12-11T03:51:11.345Z,34.60
2022-12-11T03:53:40.285Z,34.07
2022-12-11T03:56:11.381Z,37.93
2022-12-11T03:58:39.648Z,31.17
2022-12-11T04:01:11.739Z,37.53
2022-12-11T04:03:40.589Z,30.50
2022-12-11T04:06:09.166Z,29.20
2022-12-11T04:08:37.363Z,31.00
2022-12-11T04:11:23.413Z,35.80
2022-12-11T04:14:12.278Z,33.50
2022-12-11T04:16:40.915Z,40.37
2022-12-11T04:19:40.307Z,36.60
2022-12-11T04:22:26.951Z,35.50
2022-12-11T04:24:55.256Z,40.77
2022-12-11T04:27:41.127Z,35.23
2022-12-11T04:30:12.525Z,31.40
2022-12-11T04:32:42.347Z,33.50
2022-12-11T04:35:12.056Z,32.87
2022-12-11T04:37:41.033Z,33.23
2022-12-11T04:40:12.882Z,36.17
2022-12-11T04:42:41.545Z,33.50
2022-12-11T04:45:11.572Z,31.83
2022-12-11T04:47:42.829Z,34.30
2022-12-11T04:50:13.293Z,30.90
2022-12-11T04:52:41.740Z,33.27
2022-12-11T04:55:11.405Z,31.60
2022-12-11T04:57:40.176Z,30.33
2022-12-11T05:00:11.016Z,31.73
2022-12-11T05:02:43.097Z,29.77
2022-12-11T05:05:12.930Z,33.67
2022-12-11T05:07:41.989Z,26.57
2022-12-11T05:10:10.839Z,36.97
2022-12-11T05:12:39.022Z,30.77
2022-12-11T05:15:08.615Z,36.57
2022-12-11T05:17:36.959Z,28.10
2022-12-11T05:20:07.734Z,32.90
2022-12-11T05:22:36.391Z,28.27
2022-12-11T05:25:04.903Z,35.83
2022-12-11T05:27:33.129Z,32.40
2022-12-11T05:30:01.669Z,35.10
2022-12-11T05:32:30.300Z,36.20
2022-12-11T05:34:58.509Z,41.43
2022-12-11T05:37:28.474Z,35.57
2022-12-11T05:39:56.633Z,39.27
2022-12-11T05:42:28.793Z,38.80
2022-12-11T05:44:57.227Z,34.67
2022-12-11T05:47:25.645Z,43.43
2022-12-11T05:49:53.882Z,35.77
2022-12-11T05:52:22.187Z,37.17
2022-12-11T05:54:51.905Z,30.83
2022-12-11T05:57:20.133Z,36.13
2022-12-11T05:59:48.310Z,36.37
2022-12-11T06:02:16.529Z,36.80
2022-12-11T06:04:44.898Z,42.90
2022-12-11T06:07:13.172Z,40.73
2022-12-11T06:09:41.330Z,38.97
2022-12-11T06:12:10.904Z,40.00
2022-12-11T06:14:39.237Z,42.50
2022-12-11T06:17:07.477Z,36.00
2022-12-11T06:19:37.138Z,35.77
2022-12-11T06:22:05.610Z,46.43
2022-12-11T06:24:34.137Z,41.77
2022-12-11T06:27:02.319Z,41.33
2022-12-11T06:29:31.898Z,40.67
2022-12-11T06:32:00.135Z,37.90
2022-12-11T06:34:28.886Z,41.93
2022-12-11T06:36:57.152Z,49.07
2022-12-11T06:39:25.346Z,46.27
2022-12-11T06:41:54.321Z,44.47
2022-12-11T06:44:22.562Z,46.90
2022-12-11T06:46:52.064Z,47.77
2022-12-11T06:49:20.280Z,50.50
2022-12-11T06:51:48.553Z,40.73
2022-12-11T06:54:16.782Z,45.43
2022-12-11T06:56:44.923Z,44.50
2022-12-11T06:59:13.709Z,44.43
2022-12-11T07:01:41.944Z,50.60
2022-12-11T07:04:11.658Z,42.40
2022-12-11T07:06:39.880Z,47.67
2022-12-11T07:09:08.277Z,49.00
2022-12-11T07:11:36.494Z,46.47
2022-12-11T07:14:04.728Z,46.87
2022-12-11T07:16:32.974Z,44.27
2022-12-11T07:19:01.921Z,42.77
2022-12-11T07:21:31.503Z,49.40
2022-12-11T07:24:00.342Z,46.70
2022-12-11T07:26:29.626Z,42.80
2022-12-11T07:28:58.813Z,50.67
2022-12-11T07:31:29.627Z,47.60
2022-12-11T07:33:59.209Z,43.77
2022-12-11T07:36:28.349Z,42.87
2022-12-11T07:38:58.176Z,42.57
2022-12-11T07:41:27.723Z,47.63
2022-12-11T07:43:56.028Z,44.33
2022-12-11T07:46:26.663Z,42.70
2022-12-11T07:48:55.622Z,42.57
2022-12-11T07:51:27.707Z,45.03
2022-12-11T07:53:59.670Z,50.37
2022-12-11T07:56:29.083Z,42.47
2022-12-11T07:58:57.321Z,46.53
2022-12-11T08:01:27.975Z,51.40
2022-12-11T08:03:57.318Z,52.50
2022-12-11T08:06:28.073Z,51.00
2022-12-11T08:08:58.286Z,53.37
2022-12-11T08:11:27.070Z,45.93
2022-12-11T08:13:55.952Z,44.90
2022-12-11T08:16:24.491Z,42.37
2022-12-11T08:18:52.809Z,41.67
2022-12-11T08:21:22.772Z,41.77
2022-12-11T08:23:51.633Z,41.63
2022-12-11T08:26:24.194Z,42.33
2022-12-11T08:28:52.667Z,40.20
2022-12-11T08:31:21.724Z,40.33
2022-12-11T08:33:50.859Z,39.47
2022-12-11T08:36:20.975Z,45.00
2022-12-11T08:38:51.254Z,44.83
2022-12-11T08:41:23.311Z,39.00
2022-12-11T08:43:54.855Z,41.13
2022-12-11T08:46:24.890Z,41.67
2022-12-11T08:48:53.753Z,42.93
2022-12-11T08:51:23.938Z,43.70
2022-12-11T08:53:52.561Z,43.83
2022-12-11T08:56:23.792Z,45.23
2022-12-11T08:58:52.619Z,41.33
2022-12-11T09:01:22.892Z,35.77
2022-12-11T09:03:52.790Z,36.87
2022-12-11T09:06:23.441Z,40.63
2022-12-11T09:08:53.691Z,36.47
2022-12-11T09:11:25.694Z,38.70
2022-12-11T09:13:54.310Z,41.80
2022-12-11T09:16:24.418Z,39.10
2022-12-11T09:18:54.833Z,39.13
2022-12-11T09:21:25.289Z,39.33
2022-12-11T09:23:55.523Z,41.10
2022-12-11T09:26:25.854Z,35.47
2022-12-11T09:28:54.964Z,37.63
2022-12-11T09:31:25.638Z,42.93
2022-12-11T09:33:57.048Z,36.50
2022-12-11T09:36:25.739Z,43.43
2022-12-11T09:38:54.375Z,38.33
2022-12-11T09:41:40.540Z,40.93
2022-12-11T09:44:24.584Z,41.30
2022-12-11T09:46:53.144Z,45.93
2022-12-11T09:49:29.728Z,38.80
2022-12-11T09:52:04.785Z,39.03
2022-12-11T09:54:34.174Z,42.23
2022-12-11T09:57:13.769Z,34.50
2022-12-11T09:59:51.486Z,38.50
2022-12-11T10:02:30.029Z,38.23
2022-12-11T10:05:09.275Z,35.77
2022-12-11T10:07:42.917Z,34.10
2022-12-11T10:10:20.995Z,35.43
2022-12-11T10:12:57.290Z,32.43
2022-12-11T10:15:36.952Z,32.23
2022-12-11T10:18:10.905Z,32.50
2022-12-11T10:20:42.747Z,33.53
2022-12-11T10:23:18.953Z,35.07
2022-12-11T10:25:52.726Z,35.07
2022-12-11T10:28:22.579Z,33.60
2022-12-11T10:30:56.505Z,35.97
2022-12-11T10:33:34.682Z,34.60
2022-12-11T10:36:03.397Z,33.77
2022-12-11T10:38:33.624Z,31.33
2022-12-11T10:41:04.182Z,25.63
2022-12-11T10:43:39.672Z,34.57
2022-12-11T10:46:15.887Z,28.97
2022-12-11T10:48:47.938Z,32.37
2022-12-11T10:51:16.800Z,29.70
2022-12-11T10:53:50.492Z,31.57
2022-12-11T10:56:26.654Z,31.23
2022-12-11T10:58:58.793Z,34.57
2022-12-11T11:01:30.058Z,30.60
2022-12-11T11:04:04.373Z,28.90
2022-12-11T11:06:33.258Z,33.40
2022-12-11T11:09:03.067Z,33.70
2022-12-11T11:11:34.279Z,35.00
2022-12-11T11:14:13.348Z,30.67
2022-12-11T11:16:42.773Z,36.87
2022-12-11T11:19:20.039Z,28.77
2022-12-11T11:21:51.843Z,38.23
2022-12-11T11:24:28.575Z,29.40
2022-12-11T11:27:12.921Z,35.77
2022-12-11T11:29:47.670Z,33.57
2022-12-11T11:32:22.220Z,31.30
2022-12-11T11:34:50.514Z,29.57
2022-12-11T11:37:32.963Z,32.20
2022-12-11T11:40:08.006Z,27.30
2022-12-11T11:42:44.888Z,25.87
2022-12-11T11:45:18.709Z,28.43
2022-12-11T11:47:59.961Z,24.13
2022-12-11T11:50:34.844Z,33.07
2022-12-11T11:53:08.763Z,30.30
2022-12-11T11:55:44.794Z,28.50
2022-12-11T11:58:17.954Z,24.67
2022-12-11T12:00:47.626Z,28.53
2022-12-11T12:03:19.620Z,27.30
2022-12-11T12:05:55.122Z,26.60
2022-12-11T12:08:35.324Z,29.07
2022-12-11T12:11:11.342Z,27.70
2022-12-11T12:13:50.679Z,24.20
2022-12-11T12:19:36.094Z,28.73
2022-12-11T12:22:15.385Z,20.73
2022-12-11T12:24:55.443Z,24.17
2022-12-11T12:30:24.094Z,18.87
2022-12-11T12:33:14.206Z,24.80
2022-12-11T12:35:51.657Z,25.13
2022-12-11T12:38:24.775Z,20.53
2022-12-11T12:41:04.590Z,25.23
2022-12-11T12:43:49.067Z,22.43
2022-12-11T12:46:26.831Z,19.13
2022-12-11T12:48:58.402Z,22.27
2022-12-11T12:51:27.414Z,18.93
2022-12-11T12:53:58.328Z,21.60
2022-12-11T12:56:28.533Z,25.03
2022-12-11T12:58:56.760Z,24.23
2022-12-11T13:01:27.284Z,27.53
2022-12-11T13:03:59.742Z,26.33
2022-12-11T13:06:34.065Z,27.20
2022-12-11T13:09:17.126Z,25.37
2022-12-11T13:11:46.878Z,26.27
2022-12-11T13:14:29.623Z,27.27
2022-12-11T13:17:23.882Z,26.43
2022-12-11T13:20:11.963Z,27.60
2022-12-11T13:22:55.197Z,30.00
2022-12-11T13:25:29.690Z,29.20
2022-12-11T13:28:07.790Z,29.67
2022-12-11T13:30:36.340Z,22.90
2022-12-11T13:33:07.387Z,25.10
2022-12-11T13:35:37.147Z,23.40
2022-12-11T13:38:08.455Z,24.57
2022-12-11T13:40:41.143Z,20.67
2022-12-11T13:43:19.521Z,27.17
2022-12-11T13:45:51.415Z,29.57
2022-12-11T13:48:25.327Z,28.30
2022-12-11T13:50:56.081Z,31.23
2022-12-11T13:53:24.865Z,30.47
2022-12-11T13:56:01.825Z,31.27
2022-12-11T13:58:31.494Z,35.73
2022-12-11T14:01:08.227Z,29.37
2022-12-11T14:03:37.031Z,28.23
2022-12-11T14:06:16.599Z,27.13
2022-12-11T14:08:50.932Z,26.90
2022-12-11T14:11:24.873Z,26.47
2022-12-11T14:13:53.083Z,26.67
2022-12-11T14:16:23.764Z,29.47
2022-12-11T14:18:53.737Z,28.40
2022-12-11T14:21:25.287Z,32.33
2022-12-11T14:23:55.299Z,30.27
2022-12-11T14:26:27.394Z,30.33
2022-12-11T14:28:56.257Z,32.53
2022-12-11T14:31:30.306Z,26.07
2022-12-11T14:34:03.978Z,29.80
2022-12-11T14:36:36.493Z,29.27
2022-12-11T14:39:07.688Z,26.63
2022-12-11T14:41:43.985Z,32.07
2022-12-11T14:44:15.926Z,28.07
2022-12-11T14:46:47.372Z,26.80
2022-12-11T14:49:22.156Z,27.40
2022-12-11T14:51:53.001Z,26.07
2022-12-11T14:54:28.374Z,24.97
2022-12-11T14:56:57.421Z,25.70
2022-12-11T14:59:31.821Z,27.53
2022-12-11T15:02:03.279Z,27.53
2022-12-11T15:04:34.503Z,21.70
2022-12-11T15:07:04.342Z,22.80
2022-12-11T15:09:40.723Z,22.33
2022-12-11T15:12:12.404Z,20.07
2022-12-11T15:14:48.629Z,19.10
2022-12-11T15:17:17.417Z,18.37
2022-12-11T15:19:51.168Z,18.73
2022-12-11T15:22:24.139Z,26.87
2022-12-11T15:24:54.136Z,23.77
2022-12-11T15:27:30.867Z,19.80
2022-12-11T15:29:59.170Z,21.77
2022-12-11T15:32:27.901Z,20.80
2022-12-11T15:34:57.814Z,21.87
2022-12-11T15:37:29.370Z,19.70
2022-12-11T15:39:59.189Z,23.47
2022-12-11T15:42:30.199Z,25.70
2022-12-11T15:44:59.332Z,22.33
2022-12-11T15:47:29.382Z,21.20
2022-12-11T15:50:00.667Z,22.23
2022-12-11T15:52:30.354Z,25.27
2022-12-11T15:54:58.614Z,23.03
2022-12-11T15:57:27.165Z,22.03
2022-12-11T15:59:56.763Z,24.63
2022-12-11T16:02:26.778Z,25.80
2022-12-11T16:04:57.668Z,21.90
2022-12-11T16:07:27.402Z,24.10
2022-12-11T16:09:57.032Z,21.53
2022-12-11T16:12:25.461Z,24.83
2022-12-11T16:14:54.834Z,26.60
2022-12-11T16:17:23.140Z,22.73
2022-12-11T16:19:51.690Z,21.70
2022-12-11T16:22:19.890Z,27.40
2022-12-11T16:24:48.349Z,24.47
2022-12-11T16:27:22.917Z,32.07
2022-12-11T16:29:52.029Z,26.70
2022-12-11T16:32:21.400Z,26.40
2022-12-11T16:34:49.683Z,22.63
2022-12-11T16:37:17.967Z,25.37
2022-12-11T16:39:46.937Z,23.30
2022-12-11T16:42:15.177Z,24.13
2022-12-11T16:44:47.420Z,23.43
2022-12-11T16:47:16.068Z,24.87
2022-12-11T16:49:44.309Z,25.77
2022-12-11T16:52:15.351Z,24.03
2022-12-11T16:54:47.215Z,19.47
2022-12-11T16:57:15.388Z,28.87
2022-12-11T16:59:45.022Z,23.40
2022-12-11T17:02:13.492Z,23.30
2022-12-11T17:04:41.914Z,24.70
2022-12-11T17:07:10.262Z,26.63
2022-12-11T17:09:38.611Z,26.20
2022-12-11T17:12:08.159Z,27.40
2022-12-11T17:14:37.725Z,28.47
2022-12-11T17:17:07.703Z,28.33
2022-12-11T17:19:36.222Z,30.60
2022-12-11T17:22:05.733Z,30.03
2022-12-11T17:24:34.323Z,31.70
2022-12-11T17:27:02.649Z,28.00
2022-12-11T17:29:31.008Z,31.33
2022-12-11T17:31:59.451Z,32.17
2022-12-11T17:34:33.084Z,31.07
2022-12-11T17:37:05.682Z,30.40
2022-12-11T17:39:34.474Z,25.93
2022-12-11T17:42:02.695Z,32.47
2022-12-11T17:44:31.417Z,27.20
2022-12-11T17:47:00.084Z,30.30
2022-12-11T17:49:29.711Z,30.53
2022-12-11T17:51:58.224Z,35.33
2022-12-11T17:54:26.874Z,28.67
2022-12-11T17:56:55.110Z,34.37
2022-12-11T17:59:23.339Z,38.03
2022-12-11T18:01:51.773Z,34.30
2022-12-11T18:04:20.048Z,34.90
2022-12-11T18:06:49.661Z,33.57
2022-12-11T18:09:18.043Z,37.37
2022-12-11T18:11:46.316Z,35.33
2022-12-11T18:14:17.338Z,32.97
2022-12-11T18:16:46.301Z,37.97
2022-12-11T18:19:15.704Z,35.93
2022-12-11T18:21:45.797Z,31.00
2022-12-11T18:24:15.579Z,27.90
2022-12-11T18:26:43.848Z,33.20
2022-12-11T18:29:12.394Z,30.00
2022-12-11T18:31:42.907Z,34.20
2022-12-11T18:34:11.947Z,26.07
2022-12-11T18:36:41.518Z,30.87
2022-12-11T18:39:09.814Z,31.80
2022-12-11T18:41:40.003Z,31.00
2022-12-11T18:44:10.150Z,27.97
2022-12-11T18:46:39.931Z,27.07
2022-12-11T18:49:08.658Z,36.23
2022-12-11T18:51:37.309Z,33.80
2022-12-11T18:54:06.635Z,27.53
2022-12-11T18:56:35.056Z,25.93
2022-12-11T18:59:05.887Z,32.57
2022-12-11T19:01:35.151Z,30.90
2022-12-11T19:04:07.833Z,30.47
2022-12-11T19:06:39.306Z,28.60
2022-12-11T19:09:10.166Z,27.87
2022-12-11T19:11:40.777Z,34.47
2022-12-11T19:14:11.560Z,26.07
2022-12-11T19:16:41.906Z,24.60
2022-12-11T19:19:14.212Z,24.07
2022-12-11T19:21:42.961Z,23.77
2022-12-11T19:24:14.974Z,23.53
2022-12-11T19:26:43.468Z,24.23
2022-12-11T19:29:19.877Z,23.60
2022-12-11T19:31:49.071Z,25.93
2022-12-11T19:34:17.411Z,23.90
2022-12-11T19:36:45.825Z,25.23
2022-12-11T19:39:15.366Z,23.63
2022-12-11T19:41:43.702Z,28.73
2022-12-11T19:44:13.984Z,26.43
2022-12-11T19:46:42.255Z,27.87
2022-12-11T19:49:13.075Z,24.37
2022-12-11T19:51:43.085Z,27.17
2022-12-11T19:54:15.152Z,27.80
2022-12-11T19:56:44.230Z,30.50
2022-12-11T19:59:16.685Z,25.00
2022-12-11T20:01:47.946Z,25.77
2022-12-11T20:04:17.909Z,27.00
2022-12-11T20:06:47.849Z,23.67
2022-12-11T20:09:16.472Z,25.87
2022-12-11T20:11:47.388Z,23.10
2022-12-11T20:14:22.954Z,23.93
2022-12-11T20:19:41.159Z,20.50
2022-12-11T20:22:10.238Z,21.77
2022-12-11T20:24:39.286Z,24.50
2022-12-11T20:27:09.519Z,23.17
2022-12-11T20:29:39.175Z,20.73
2022-12-11T20:32:11.330Z,20.63
2022-12-11T20:34:39.921Z,22.33
2022-12-11T20:37:09.129Z,24.90
2022-12-11T20:39:38.001Z,24.60
2022-12-11T20:42:07.099Z,21.00
2022-12-11T20:44:35.778Z,21.27
2022-12-11T20:47:07.897Z,20.73
2022-12-11T20:49:37.164Z,21.17
2022-12-11T20:52:06.752Z,23.07
2022-12-11T20:54:35.331Z,24.13
2022-12-11T20:57:03.825Z,24.33
2022-12-11T20:59:32.925Z,25.23
2022-12-11T21:02:01.423Z,23.17
2022-12-11T21:04:31.579Z,23.90
2022-12-11T21:07:00.817Z,26.47
2022-12-11T21:09:29.619Z,26.87
2022-12-11T21:12:00.745Z,28.90
2022-12-11T21:14:30.315Z,24.50
2022-12-11T21:16:58.571Z,23.17
2022-12-11T21:19:27.709Z,26.17
2022-12-11T21:21:58.297Z,30.10
2022-12-11T21:24:28.748Z,29.07
2022-12-11T21:26:58.498Z,26.53
2022-12-11T21:29:29.386Z,26.43
2022-12-11T21:31:58.478Z,27.07
2022-12-11T21:34:27.532Z,26.20
2022-12-11T21:36:57.601Z,23.17
2022-12-11T21:39:26.401Z,24.50
2022-12-11T21:41:54.732Z,22.37
2022-12-11T21:47:11.358Z,21.47
2022-12-11T21:49:39.665Z,23.67
2022-12-11T21:52:09.524Z,22.83
2022-12-11T21:54:39.369Z,21.17
2022-12-11T21:57:07.756Z,29.83
2022-12-11T21:59:36.236Z,23.40
2022-12-11T22:02:04.834Z,25.00
2022-12-11T22:04:33.977Z,29.40
2022-12-11T22:07:02.318Z,31.17
2022-12-11T22:09:32.189Z,33.20
2022-12-11T22:12:00.692Z,26.77
2022-12-11T22:14:31.474Z,28.47
2022-12-11T22:17:00.856Z,21.13
2022-12-11T22:19:32.685Z,32.23
2022-12-11T22:22:01.499Z,24.50
2022-12-11T22:24:31.219Z,23.37
2022-12-11T22:26:59.469Z,22.67
2022-12-11T22:29:28.707Z,20.30
2022-12-11T22:31:57.121Z,20.20
2022-12-11T22:34:25.836Z,24.90
2022-12-11T22:36:54.357Z,24.30
2022-12-11T22:39:22.613Z,23.33
2022-12-11T22:41:52.445Z,22.00
2022-12-11T22:44:22.455Z,18.90
2022-12-11T22:46:51.106Z,22.13
2022-12-11T22:49:20.331Z,19.83
2022-12-11T22:51:48.946Z,22.60
2022-12-11T22:54:17.568Z,18.40
2022-12-11T22:56:45.863Z,21.67
2022-12-11T22:59:15.499Z,19.33
2022-12-11T23:01:43.720Z,18.83
2022-12-11T23:04:12.039Z,20.13
2022-12-11T23:06:40.330Z,22.80
2022-12-11T23:09:08.869Z,19.07
2022-12-11T23:11:38.559Z,22.40
2022-12-11T23:14:09.313Z,22.93
2022-12-11T23:16:38.928Z,21.70
2022-12-11T23:19:07.706Z,23.77
2022-12-11T23:21:35.997Z,21.10
2022-12-11T23:24:05.439Z,20.27
2022-12-11T23:26:33.708Z,19.90
2022-12-11T23:29:02.553Z,17.37
2022-12-11T23:31:31.199Z,16.33
2022-12-11T23:34:01.204Z,22.90
2022-12-11T23:36:30.035Z,25.23
2022-12-11T23:38:58.400Z,22.03
2022-12-11T23:41:26.813Z,18.70
2022-12-11T23:43:55.051Z,19.73
2022-12-11T23:46:25.283Z,22.07
2022-12-11T23:48:53.960Z,20.27
2022-12-11T23:51:25.500Z,20.50
2022-12-11T23:53:54.856Z,24.00
2022-12-11T23:56:25.376Z,19.40
2022-12-11T23:58:54.338Z,20.87
